Time;durP1;ratioP1;P1;durP2;ratioP2;P2;SDS_P1;SDS_P2;PMS_P1;PMS_P2;Temp;Humidity;BMP_temperature;BMP_pressure;BME280_temperature;BME280_humidity;BME280_pressure;Samples;Min_cycle;Max_cycle;Signal;HPM_P1;HPM_P2
2021/11/25 00:00:24;;;;;;;3.83;3.03;;;18.10;56.70;;;;;;5023136;28;20021;-56
2021/11/25 00:02:49;;;;;;;3.72;3.35;;;18.10;56.70;;;;;;5041208;28;20028;-56
2021/11/25 00:05:15;;;;;;;4.72;3.45;;;18.00;56.60;;;;;;5004994;28;20116;-58
2021/11/25 00:07:41;;;;;;;3.65;3.25;;;18.00;56.50;;;;;;5032217;28;20037;-60
2021/11/25 00:10:07;;;;;;;3.47;3.17;;;18.00;56.50;;;;;;5041033;28;20128;-60
2021/11/25 00:12:32;;;;;;;3.40;3.10;;;18.00;56.50;;;;;;5018992;28;20029;-60
2021/11/25 00:14:58;;;;;;;4.10;3.70;;;18.00;56.50;;;;;;5043278;28;20025;-58
2021/11/25 00:17:23;;;;;;;4.03;3.63;;;18.00;56.40;;;;;;5042444;28;20024;-60
2021/11/25 00:19:49;;;;;;;4.30;3.38;;;18.00;56.40;;;;;;5037548;28;20736;-60
2021/11/25 00:22:14;;;;;;;4.07;3.67;;;18.00;56.20;;;;;;5042790;28;20029;-60
2021/11/25 00:24:40;;;;;;;3.60;3.30;;;18.00;56.30;;;;;;5029827;28;20029;-60
2021/11/25 00:27:06;;;;;;;4.80;3.30;;;18.00;56.20;;;;;;5006373;28;20117;-60
2021/11/25 00:29:31;;;;;;;3.65;3.35;;;18.00;56.20;;;;;;5023106;28;20034;-60
2021/11/25 00:31:57;;;;;;;3.70;3.40;;;18.00;56.20;;;;;;5024475;28;20108;-61
2021/11/25 00:34:22;;;;;;;4.53;4.10;;;18.00;56.20;;;;;;5038943;28;20039;-61
2021/11/25 00:36:48;;;;;;;3.67;3.30;;;18.00;56.20;;;;;;5037870;28;20026;-60
2021/11/25 00:39:13;;;;;;;4.38;3.80;;;18.00;56.10;;;;;;5039041;28;20132;-61
2021/11/25 00:41:39;;;;;;;3.72;3.33;;;18.00;56.00;;;;;;5024274;28;20021;-59
2021/11/25 00:44:05;;;;;;;4.03;3.63;;;18.00;56.00;;;;;;5024631;28;20393;-58
2021/11/25 00:46:30;;;;;;;4.22;3.83;;;18.00;56.10;;;;;;5036519;28;20018;-56
2021/11/25 00:48:55;;;;;;;4.57;4.18;;;17.90;56.00;;;;;;5040774;28;20486;-60
2021/11/25 00:51:21;;;;;;;4.53;4.13;;;17.90;55.90;;;;;;5039488;28;20045;-57
2021/11/25 00:53:47;;;;;;;3.80;3.50;;;18.00;55.90;;;;;;5023007;28;20037;-58
2021/11/25 00:56:12;;;;;;;4.43;4.03;;;18.00;55.80;;;;;;5022662;28;20033;-59
2021/11/25 00:58:38;;;;;;;4.40;4.00;;;18.00;55.80;;;;;;5022218;28;20033;-61
2021/11/25 01:01:03;;;;;;;5.05;4.35;;;18.00;55.80;;;;;;5037678;28;20037;-61
2021/11/25 01:03:29;;;;;;;4.75;3.80;;;18.00;55.80;;;;;;5042258;28;20638;-58
2021/11/25 01:05:54;;;;;;;4.25;3.85;;;17.90;55.80;;;;;;5042812;28;20053;-61
2021/11/25 01:08:20;;;;;;;4.63;4.07;;;17.90;55.80;;;;;;5038153;28;20403;-59
2021/11/25 01:10:45;;;;;;;4.28;3.88;;;17.90;55.90;;;;;;5029301;28;20110;-59
2021/11/25 01:13:11;;;;;;;4.50;4.10;;;17.80;55.80;;;;;;5029449;28;20502;-59
2021/11/25 01:15:37;;;;;;;4.03;3.63;;;17.90;55.90;;;;;;5024203;28;20040;-60
2021/11/25 01:18:10;;;;;;;4.82;3.97;;;17.90;55.90;;;;;;5030869;28;20456;-60
2021/11/25 01:20:36;;;;;;;4.82;4.32;;;17.80;55.80;;;;;;5028404;28;20040;-59
2021/11/25 01:23:04;;;;;;;4.65;4.20;;;17.80;55.80;;;;;;5035846;28;20042;-57
2021/11/25 01:25:30;;;;;;;4.03;3.72;;;17.80;55.80;;;;;;5013946;28;20033;-58
2021/11/25 01:27:55;;;;;;;4.47;4.07;;;17.80;55.80;;;;;;5037617;28;20056;-58
2021/11/25 01:30:21;;;;;;;5.00;4.05;;;17.80;55.80;;;;;;5041897;28;20090;-61
2021/11/25 01:32:46;;;;;;;5.03;4.63;;;17.80;55.70;;;;;;5023345;28;20033;-56
2021/11/25 01:35:12;;;;;;;4.53;4.13;;;17.70;55.70;;;;;;5041301;28;20033;-60
2021/11/25 01:37:37;;;;;;;4.40;4.00;;;17.70;55.70;;;;;;5021670;28;20037;-59
2021/11/25 01:40:05;;;;;;;4.72;4.32;;;17.70;55.70;;;;;;5020888;28;20065;-61
2021/11/25 01:42:30;;;;;;;4.50;4.10;;;17.70;55.80;;;;;;5022108;28;20033;-60
2021/11/25 01:44:56;;;;;;;4.63;4.22;;;17.70;55.80;;;;;;5039862;28;20040;-57
2021/11/25 01:47:21;;;;;;;4.70;4.30;;;17.70;55.90;;;;;;5027124;28;20372;-58
2021/11/25 01:49:47;;;;;;;4.63;4.18;;;17.70;55.90;;;;;;5024380;28;20026;-58
2021/11/25 01:52:12;;;;;;;4.45;4.05;;;17.70;55.80;;;;;;5021385;28;20074;-60
2021/11/25 01:54:38;;;;;;;4.50;4.10;;;17.70;55.70;;;;;;5020903;28;20680;-59
2021/11/25 01:57:03;;;;;;;4.60;4.20;;;17.70;55.70;;;;;;5019808;28;20576;-60
2021/11/25 01:59:29;;;;;;;5.75;4.68;;;17.70;55.60;;;;;;5001826;28;20022;-58
2021/11/25 02:01:54;;;;;;;4.70;4.30;;;17.80;55.40;;;;;;5003902;28;20029;-61
2021/11/25 02:04:20;;;;;;;5.53;5.03;;;17.80;55.30;;;;;;5020387;28;20072;-60
2021/11/25 02:06:45;;;;;;;4.78;4.32;;;17.90;55.10;;;;;;5009941;28;20025;-58
2021/11/25 02:09:11;;;;;;;5.45;4.57;;;17.90;55.00;;;;;;5023081;28;20103;-58
2021/11/25 02:11:37;;;;;;;5.10;4.60;;;18.00;54.90;;;;;;5020905;28;20394;-57
2021/11/25 02:14:03;;;;;;;6.03;5.47;;;18.00;54.70;;;;;;5027273;28;20033;-60
2021/11/25 02:16:29;;;;;;;4.72;4.32;;;18.00;54.60;;;;;;5036431;28;20028;-61
2021/11/25 02:18:58;;;;;;;4.75;4.35;;;18.10;54.60;;;;;;5040381;28;20850;-60
2021/11/25 02:21:27;;;;;;;5.57;5.07;;;18.10;54.50;;;;;;5022964;28;20406;-59
2021/11/25 02:23:52;;;;;;;5.22;4.80;;;18.10;54.40;;;;;;5036902;28;20581;-58
2021/11/25 02:26:18;;;;;;;5.07;4.57;;;18.10;54.30;;;;;;5026949;28;20025;-60
2021/11/25 02:28:43;;;;;;;4.95;4.55;;;18.10;54.40;;;;;;5041327;28;20017;-59
2021/11/25 02:31:09;;;;;;;4.40;4.00;;;18.10;54.20;;;;;;5040797;28;20052;-59
2021/11/25 02:33:37;;;;;;;6.47;4.85;;;18.20;54.20;;;;;;5037680;28;20498;-60
2021/11/25 02:36:03;;;;;;;5.05;4.65;;;18.20;54.10;;;;;;5021139;28;20045;-56
2021/11/25 02:38:29;;;;;;;5.40;4.90;;;18.20;54.10;;;;;;5041423;28;20577;-61
2021/11/25 02:40:55;;;;;;;6.75;4.90;;;18.20;54.20;;;;;;5040410;28;20112;-61
2021/11/25 02:43:25;;;;;;;5.40;4.90;;;18.20;54.30;;;;;;5040928;28;20050;-61
2021/11/25 02:45:53;;;;;;;5.25;4.75;;;18.20;54.30;;;;;;5023271;28;20227;-57
2021/11/25 02:48:19;;;;;;;5.30;4.80;;;18.20;54.40;;;;;;5021346;28;20021;-61
2021/11/25 02:50:45;;;;;;;4.63;4.22;;;18.20;54.50;;;;;;5018429;28;20049;-61
2021/11/25 02:53:11;;;;;;;5.38;4.88;;;18.20;54.50;;;;;;5040884;28;20122;-61
2021/11/25 02:55:37;;;;;;;5.32;4.63;;;18.20;54.50;;;;;;5036431;28;20037;-59
2021/11/25 02:58:02;;;;;;;6.57;4.95;;;18.20;54.50;;;;;;5020549;28;20038;-54
2021/11/25 03:00:31;;;;;;;5.70;4.88;;;18.20;54.50;;;;;;5020407;28;20379;-59
2021/11/25 03:03:01;;;;;;;4.93;4.47;;;18.20;54.60;;;;;;5019989;28;20033;-59
2021/11/25 03:05:26;;;;;;;5.50;4.97;;;18.20;54.60;;;;;;5022028;28;20040;-60
2021/11/25 03:07:52;;;;;;;5.43;4.93;;;18.20;54.60;;;;;;5037913;28;20037;-58
2021/11/25 03:10:18;;;;;;;5.38;4.88;;;18.20;54.60;;;;;;5006569;28;20379;-59
2021/11/25 03:12:43;;;;;;;5.43;4.93;;;18.10;54.60;;;;;;5041032;28;20034;-56
2021/11/25 03:15:09;;;;;;;5.40;4.90;;;18.10;54.60;;;;;;5039502;28;20512;-59
2021/11/25 03:17:37;;;;;;;5.68;5.15;;;18.10;54.60;;;;;;5040478;28;20037;-59
2021/11/25 03:20:03;;;;;;;5.32;4.82;;;18.10;54.60;;;;;;5028043;28;20037;-60
2021/11/25 03:22:29;;;;;;;5.45;5.00;;;18.10;54.50;;;;;;5003120;28;20033;-58
2021/11/25 03:24:56;;;;;;;5.35;4.85;;;18.10;54.40;;;;;;5019614;28;20025;-60
2021/11/25 03:27:21;;;;;;;5.28;4.78;;;18.10;54.40;;;;;;5022589;28;20120;-58
2021/11/25 03:29:47;;;;;;;6.13;5.55;;;18.10;54.40;;;;;;5038744;28;20167;-58
2021/11/25 03:32:12;;;;;;;5.93;5.38;;;18.00;54.30;;;;;;5045306;28;20055;-58
2021/11/25 03:34:38;;;;;;;6.22;5.63;;;18.10;54.20;;;;;;5034210;28;20446;-56
2021/11/25 03:37:03;;;;;;;5.70;5.20;;;18.00;54.00;;;;;;5044015;28;20104;-62
2021/11/25 03:39:29;;;;;;;5.88;5.38;;;18.10;54.00;;;;;;5031924;28;20065;-60
2021/11/25 03:41:54;;;;;;;6.03;5.40;;;18.00;54.00;;;;;;5024203;28;20057;-59
2021/11/25 03:44:20;;;;;;;5.18;4.68;;;18.00;54.00;;;;;;5027840;28;20088;-59
2021/11/25 03:46:45;;;;;;;5.93;5.30;;;18.00;53.90;;;;;;5033234;28;20021;-61
2021/11/25 03:49:11;;;;;;;5.82;5.28;;;18.00;53.80;;;;;;5034129;28;20481;-58
2021/11/25 03:51:36;;;;;;;6.25;5.65;;;18.00;53.80;;;;;;5043311;28;20486;-57
2021/11/25 03:54:02;;;;;;;6.05;5.45;;;18.00;53.80;;;;;;5043956;28;20048;-60
2021/11/25 03:56:27;;;;;;;6.10;5.50;;;17.90;53.90;;;;;;5030595;28;20075;-59
2021/11/25 03:58:53;;;;;;;5.85;5.25;;;17.90;53.70;;;;;;5003370;28;20732;-58
2021/11/25 04:01:19;;;;;;;5.40;4.90;;;18.00;53.80;;;;;;5024905;28;20036;-59
2021/11/25 04:03:45;;;;;;;7.60;5.95;;;17.90;53.80;;;;;;5035828;28;20030;-59
2021/11/25 04:06:10;;;;;;;6.40;5.78;;;17.90;53.80;;;;;;5005526;28;20037;-60
2021/11/25 04:08:36;;;;;;;6.18;5.57;;;17.90;53.80;;;;;;4999027;28;20030;-59
2021/11/25 04:11:02;;;;;;;5.60;5.10;;;17.80;53.70;;;;;;5003469;28;20038;-59
2021/11/25 04:13:28;;;;;;;5.25;4.80;;;17.80;53.70;;;;;;5009834;28;20053;-59
2021/11/25 04:15:53;;;;;;;6.32;5.75;;;17.80;53.90;;;;;;5042815;28;20179;-60
2021/11/25 04:18:19;;;;;;;5.93;5.43;;;17.80;53.90;;;;;;4998403;28;20057;-60
2021/11/25 04:20:44;;;;;;;6.18;5.50;;;17.80;53.80;;;;;;5032780;28;20030;-57
2021/11/25 04:23:10;;;;;;;5.85;5.35;;;17.80;54.20;;;;;;5000732;28;20088;-56
2021/11/25 04:25:35;;;;;;;5.95;5.45;;;17.70;53.80;;;;;;5002654;28;20161;-58
2021/11/25 04:28:01;;;;;;;7.05;5.47;;;17.70;53.70;;;;;;5002638;28;20026;-58
2021/11/25 04:30:48;;;;;;;5.68;5.15;;;17.70;53.70;;;;;;4991469;28;20046;-56
2021/11/25 04:35:57;;;;;;;5.88;5.18;;;17.70;53.70;;;;;;5043041;28;20087;-59
2021/11/25 04:38:22;;;;;;;6.03;5.43;;;17.70;53.70;;;;;;5007225;28;20064;-59
2021/11/25 04:40:50;;;;;;;5.95;5.35;;;17.70;53.70;;;;;;5025099;28;20053;-58
2021/11/25 04:43:16;;;;;;;8.10;5.68;;;17.70;53.60;;;;;;5014102;28;20682;-59
2021/11/25 04:45:43;;;;;;;5.35;4.88;;;17.70;53.70;;;;;;5043256;28;20082;-60
2021/11/25 04:48:09;;;;;;;6.22;5.63;;;17.70;53.70;;;;;;5025420;28;20145;-56
2021/11/25 04:50:35;;;;;;;5.32;4.93;;;17.70;53.70;;;;;;4975627;28;20038;-55
2021/11/25 04:53:01;;;;;;;5.70;5.20;;;17.70;53.70;;;;;;5003756;28;20573;-57
2021/11/25 04:55:26;;;;;;;5.35;4.93;;;17.70;53.80;;;;;;5002728;28;20029;-58
2021/11/25 04:57:52;;;;;;;5.43;5.00;;;17.70;53.80;;;;;;5002384;28;20046;-61
2021/11/25 05:00:18;;;;;;;5.68;4.68;;;17.70;53.90;;;;;;4984744;28;20483;-61
2021/11/25 05:05:18;;;;;;;6.35;5.75;;;17.70;54.00;;;;;;5008323;28;20449;-56
2021/11/25 05:07:44;;;;;;;7.45;5.25;;;17.70;54.00;;;;;;5020945;28;20033;-55
2021/11/25 05:10:09;;;;;;;5.05;4.63;;;17.70;54.00;;;;;;5021513;28;20747;-55
2021/11/25 05:12:37;;;;;;;4.88;4.38;;;17.70;54.00;;;;;;4987980;28;20493;-56
2021/11/25 05:15:04;;;;;;;5.63;4.88;;;17.70;54.10;;;;;;5021933;28;20038;-57
2021/11/25 05:17:30;;;;;;;5.30;4.20;;;17.70;54.10;;;;;;5001390;28;20034;-56
2021/11/25 05:19:55;;;;;;;5.10;4.60;;;17.70;54.00;;;;;;5022266;28;20094;-55
2021/11/25 05:22:21;;;;;;;5.68;4.70;;;17.70;54.00;;;;;;5022210;28;20696;-56
2021/11/25 05:24:46;;;;;;;4.78;4.32;;;17.70;54.10;;;;;;5022149;28;20167;-59
2021/11/25 05:27:12;;;;;;;6.38;4.20;;;17.70;54.20;;;;;;5021274;28;20440;-55
2021/11/25 05:29:37;;;;;;;5.13;4.55;;;17.70;54.20;;;;;;5003576;28;20040;-56
2021/11/25 05:32:06;;;;;;;5.20;4.32;;;17.70;54.30;;;;;;5021951;28;20045;-57
2021/11/25 05:34:32;;;;;;;6.47;4.80;;;17.70;54.40;;;;;;5021078;28;20447;-56
2021/11/25 05:36:57;;;;;;;5.65;5.03;;;17.70;54.50;;;;;;5021660;28;20057;-57
2021/11/25 05:39:23;;;;;;;8.57;6.22;;;17.70;54.60;;;;;;5021116;28;20021;-56
2021/11/25 05:41:48;;;;;;;9.10;5.80;;;17.70;54.50;;;;;;5021913;28;20056;-57
2021/11/25 05:44:14;;;;;;;7.93;5.97;;;17.70;55.30;;;;;;5022456;28;20415;-55
2021/11/25 05:46:39;;;;;;;9.25;6.03;;;17.70;54.80;;;;;;5021698;28;20398;-58
2021/11/25 05:49:05;;;;;;;6.82;5.82;;;17.70;54.90;;;;;;5002920;28;20045;-56
2021/11/25 05:51:30;;;;;;;5.90;5.25;;;17.70;54.90;;;;;;5022123;28;20030;-56
2021/11/25 05:53:56;;;;;;;9.20;5.80;;;17.70;54.90;;;;;;5018028;28;20041;-57
2021/11/25 05:56:21;;;;;;;6.88;5.45;;;17.80;55.00;;;;;;5020916;28;20021;-55
2021/11/25 05:58:47;;;;;;;10.25;5.95;;;17.80;55.00;;;;;;5025547;28;20747;-56
2021/11/25 06:01:13;;;;;;;6.15;5.53;;;17.80;54.90;;;;;;5008893;28;20125;-56
2021/11/25 06:03:38;;;;;;;10.13;6.03;;;17.80;54.90;;;;;;5019131;28;20071;-58
2021/11/25 06:06:04;;;;;;;6.95;5.68;;;17.80;54.90;;;;;;5010760;28;20040;-58
2021/11/25 06:08:29;;;;;;;6.53;5.82;;;17.80;54.90;;;;;;5033802;28;20036;-56
2021/11/25 06:10:56;;;;;;;6.57;5.40;;;17.80;54.90;;;;;;5021113;28;20522;-55
2021/11/25 06:13:21;;;;;;;10.85;8.10;;;17.80;54.70;;;;;;5021815;28;20483;-57
2021/11/25 06:15:47;;;;;;;16.20;8.27;;;17.80;54.70;;;;;;5022259;28;20033;-57
2021/11/25 06:18:14;;;;;;;13.63;8.63;;;17.80;54.80;;;;;;5006105;28;20043;-56
2021/11/25 06:20:39;;;;;;;14.05;7.65;;;17.80;54.80;;;;;;5020864;28;20128;-58
2021/11/25 06:23:05;;;;;;;11.05;8.18;;;17.80;54.80;;;;;;5031842;28;20156;-56
2021/11/25 06:25:31;;;;;;;27.65;14.82;;;17.80;54.80;;;;;;5001814;28;20033;-57
2021/11/25 06:27:57;;;;;;;36.00;16.63;;;17.80;55.20;;;;;;4984168;28;20034;-55
2021/11/25 06:30:22;;;;;;;30.55;15.75;;;17.90;55.50;;;;;;4999939;28;20211;-55
2021/11/25 06:32:48;;;;;;;34.13;18.02;;;17.90;55.40;;;;;;5003803;28;20030;-58
2021/11/25 06:35:15;;;;;;;31.08;15.40;;;17.90;55.50;;;;;;5019952;28;20029;-51
2021/11/25 06:37:44;;;;;;;24.83;15.52;;;17.90;55.30;;;;;;4985552;28;20484;-58
2021/11/25 06:40:11;;;;;;;24.88;14.90;;;17.90;55.00;;;;;;5019664;28;20045;-56
2021/11/25 06:42:36;;;;;;;22.52;13.30;;;17.80;54.50;;;;;;5001008;28;20040;-52
2021/11/25 06:45:02;;;;;;;23.15;13.38;;;17.80;54.10;;;;;;5020753;28;20109;-54
2021/11/25 06:47:28;;;;;;;20.85;13.45;;;17.80;53.60;;;;;;5019135;28;20060;-52
2021/11/25 06:49:53;;;;;;;21.30;11.95;;;17.80;53.20;;;;;;5019795;28;20057;-58
2021/11/25 06:52:19;;;;;;;14.20;10.77;;;17.80;53.10;;;;;;5021648;28;20487;-53
2021/11/25 06:54:44;;;;;;;15.38;11.13;;;17.70;53.00;;;;;;5019333;28;20040;-59
2021/11/25 06:57:10;;;;;;;14.57;9.77;;;17.70;52.80;;;;;;5002805;28;20029;-56
2021/11/25 06:59:36;;;;;;;14.30;9.55;;;17.70;53.00;;;;;;5019637;28;20025;-57
2021/11/25 07:02:04;;;;;;;16.08;9.55;;;17.70;52.60;;;;;;5021025;28;20029;-57
2021/11/25 07:04:29;;;;;;;15.20;9.32;;;17.70;52.40;;;;;;5004782;28;20037;-55
2021/11/25 07:06:55;;;;;;;15.48;9.43;;;17.60;52.30;;;;;;5025006;28;20509;-59
2021/11/25 07:09:20;;;;;;;12.43;8.18;;;17.60;52.40;;;;;;5024189;28;20108;-58
2021/11/25 07:11:46;;;;;;;14.32;9.35;;;17.60;52.30;;;;;;5023010;28;20022;-53
2021/11/25 07:14:11;;;;;;;10.63;7.80;;;17.60;52.20;;;;;;5021585;28;20025;-54
2021/11/25 07:16:37;;;;;;;16.08;8.77;;;17.60;52.90;;;;;;5006094;28;20482;-52
2021/11/25 07:19:03;;;;;;;11.48;7.80;;;17.60;52.40;;;;;;5024475;28;20338;-53
2021/11/25 07:21:28;;;;;;;12.10;7.50;;;17.60;52.60;;;;;;4991191;28;20096;-55
2021/11/25 07:23:54;;;;;;;17.20;8.23;;;17.50;52.60;;;;;;5025035;28;20048;-53
2021/11/25 07:26:20;;;;;;;14.45;7.97;;;17.50;52.80;;;;;;5024060;28;20638;-58
2021/11/25 07:28:45;;;;;;;12.48;7.38;;;17.50;52.70;;;;;;4989128;28;20497;-56
2021/11/25 07:31:11;;;;;;;11.15;7.57;;;17.50;52.70;;;;;;5024742;28;20483;-51
2021/11/25 07:33:36;;;;;;;10.95;7.30;;;17.50;52.90;;;;;;5007032;28;20418;-55
2021/11/25 07:36:02;;;;;;;11.70;7.32;;;17.50;52.80;;;;;;5024648;28;20526;-59
2021/11/25 07:38:28;;;;;;;14.07;7.63;;;17.50;52.80;;;;;;5025460;28;20128;-60
2021/11/25 07:40:53;;;;;;;11.75;6.88;;;17.60;52.90;;;;;;5025160;28;20037;-59
2021/11/25 07:43:19;;;;;;;14.30;7.72;;;17.60;52.60;;;;;;5027048;28;20026;-59
2021/11/25 07:45:44;;;;;;;13.30;8.02;;;17.70;52.50;;;;;;5008970;28;20029;-57
2021/11/25 07:48:12;;;;;;;10.95;8.00;;;17.80;52.60;;;;;;5011080;28;20120;-54
2021/11/25 07:50:38;;;;;;;11.07;6.57;;;17.80;52.40;;;;;;5008050;28;20047;-53
2021/11/25 07:53:03;;;;;;;15.98;7.43;;;17.80;52.50;;;;;;5004497;28;20503;-55
2021/11/25 07:55:29;;;;;;;11.95;7.30;;;17.90;52.50;;;;;;5006175;28;20021;-54
2021/11/25 07:57:55;;;;;;;17.85;6.97;;;17.90;52.60;;;;;;5004946;28;20129;-57
2021/11/25 08:00:25;;;;;;;12.00;6.38;;;17.90;52.60;;;;;;5005883;28;20036;-51
2021/11/25 08:02:50;;;;;;;9.93;7.10;;;17.90;52.70;;;;;;5023633;28;20260;-57
2021/11/25 08:05:16;;;;;;;10.85;6.80;;;17.90;52.70;;;;;;5021360;28;20033;-53
2021/11/25 08:07:42;;;;;;;10.20;6.68;;;17.90;52.80;;;;;;5022216;28;20033;-54
2021/11/25 08:10:09;;;;;;;11.75;6.60;;;18.00;52.90;;;;;;5004258;28;20063;-57
2021/11/25 08:12:34;;;;;;;8.63;6.25;;;18.00;52.90;;;;;;5022837;28;20046;-51
2021/11/25 08:15:00;;;;;;;8.63;6.03;;;17.90;52.80;;;;;;5022465;28;20033;-52
2021/11/25 08:17:25;;;;;;;14.00;6.53;;;18.00;52.90;;;;;;5003620;28;20087;-56
2021/11/25 08:19:51;;;;;;;11.35;6.57;;;18.00;53.00;;;;;;5022848;28;20507;-58
2021/11/25 08:22:17;;;;;;;8.35;6.43;;;18.00;53.00;;;;;;5021831;28;20048;-54
2021/11/25 08:24:43;;;;;;;11.75;6.95;;;18.00;53.60;;;;;;5021667;28;20580;-56
2021/11/25 08:27:10;;;;;;;11.48;6.25;;;18.00;53.10;;;;;;4987873;28;20029;-53
2021/11/25 08:29:35;;;;;;;7.35;6.18;;;18.00;53.10;;;;;;5021858;28;20048;-57
2021/11/25 08:32:01;;;;;;;7.95;6.40;;;18.00;53.10;;;;;;5022732;28;20029;-54
2021/11/25 08:34:26;;;;;;;8.90;6.20;;;18.00;53.00;;;;;;5004109;28;20049;-60
2021/11/25 08:36:52;;;;;;;9.48;6.50;;;18.00;53.00;;;;;;5004970;28;20026;-59
2021/11/25 08:39:18;;;;;;;13.55;6.50;;;18.00;53.00;;;;;;5004381;28;20088;-57
2021/11/25 08:41:43;;;;;;;9.70;6.20;;;18.00;52.90;;;;;;5022652;28;20124;-55
2021/11/25 08:44:09;;;;;;;9.25;6.78;;;18.00;52.90;;;;;;5022275;28;20025;-54
2021/11/25 08:46:34;;;;;;;9.32;6.65;;;18.00;52.90;;;;;;5022198;28;20037;-54
2021/11/25 08:49:00;;;;;;;7.75;6.57;;;18.00;52.90;;;;;;5022124;28;20029;-53
2021/11/25 08:51:25;;;;;;;7.80;6.30;;;18.00;52.90;;;;;;5004706;28;20033;-57
2021/11/25 08:53:51;;;;;;;7.05;6.10;;;18.00;52.80;;;;;;5005865;28;20032;-53
2021/11/25 08:56:16;;;;;;;7.88;5.65;;;18.00;52.80;;;;;;5023018;28;20125;-53
2021/11/25 08:58:42;;;;;;;7.95;6.18;;;18.00;52.80;;;;;;5022351;28;20578;-56
2021/11/25 09:01:07;;;;;;;7.53;6.70;;;18.00;52.70;;;;;;5023579;28;20556;-54
2021/11/25 09:03:33;;;;;;;10.00;6.43;;;18.00;52.80;;;;;;5022959;28;20045;-55
2021/11/25 09:05:58;;;;;;;8.95;6.35;;;18.00;52.80;;;;;;5004909;28;20029;-57
2021/11/25 09:08:24;;;;;;;6.70;6.00;;;18.00;52.80;;;;;;5021118;28;20091;-53
2021/11/25 09:10:50;;;;;;;8.10;6.35;;;18.00;52.80;;;;;;5022994;28;20037;-54
2021/11/25 09:13:15;;;;;;;7.00;5.93;;;18.00;52.80;;;;;;5003389;28;20045;-57
2021/11/25 09:15:41;;;;;;;7.57;6.78;;;18.00;52.80;;;;;;5022148;28;20025;-56
2021/11/25 09:18:07;;;;;;;6.82;6.15;;;18.00;52.70;;;;;;5022733;28;20041;-55
2021/11/25 09:20:37;;;;;;;6.68;5.97;;;18.00;52.90;;;;;;5023102;28;20037;-58
2021/11/25 09:23:08;;;;;;;6.75;6.10;;;18.00;52.80;;;;;;5005180;28;20045;-59
2021/11/25 09:25:34;;;;;;;6.38;5.78;;;17.90;52.80;;;;;;5023007;28;20022;-52
2021/11/25 09:28:00;;;;;;;7.15;6.10;;;17.90;52.80;;;;;;5003188;28;20512;-59
2021/11/25 09:30:26;;;;;;;6.35;5.70;;;17.90;52.80;;;;;;5022155;28;20033;-56
2021/11/25 09:32:51;;;;;;;7.15;6.45;;;17.90;52.70;;;;;;5014721;28;20102;-58
2021/11/25 09:35:18;;;;;;;8.48;6.20;;;18.00;52.80;;;;;;5019313;28;20029;-57
2021/11/25 09:37:43;;;;;;;9.00;6.47;;;17.90;52.70;;;;;;4974778;28;20034;-59
2021/11/25 09:40:20;;;;;;;7.20;5.95;;;17.90;52.70;;;;;;5002191;28;20029;-57
2021/11/25 09:42:46;;;;;;;7.30;6.15;;;17.90;52.80;;;;;;5008702;28;20502;-55
2021/11/25 09:45:11;;;;;;;7.80;6.40;;;17.90;52.70;;;;;;5020764;28;20113;-56
2021/11/25 09:47:37;;;;;;;7.22;6.38;;;17.90;52.80;;;;;;5008287;28;21247;-56
2021/11/25 09:50:03;;;;;;;8.90;6.38;;;17.90;52.80;;;;;;4987515;28;20033;-56
2021/11/25 09:52:29;;;;;;;6.82;6.13;;;17.90;52.80;;;;;;5010541;28;20037;-56
2021/11/25 09:54:54;;;;;;;8.88;6.78;;;17.80;52.80;;;;;;5020630;28;20042;-59
2021/11/25 09:57:20;;;;;;;8.13;6.97;;;17.90;52.80;;;;;;4992127;28;20041;-56
2021/11/25 09:59:45;;;;;;;9.35;6.90;;;17.80;52.70;;;;;;5020014;28;20049;-51
2021/11/25 10:02:11;;;;;;;9.85;7.70;;;17.80;52.70;;;;;;5022764;28;20497;-59
2021/11/25 10:04:36;;;;;;;9.65;7.25;;;17.80;52.80;;;;;;5007300;28;20041;-57
2021/11/25 10:07:02;;;;;;;8.68;7.53;;;17.80;52.80;;;;;;5022071;28;20029;-51
2021/11/25 10:09:40;;;;;;;11.88;7.32;;;17.80;52.70;;;;;;5006749;28;20455;-57
2021/11/25 10:12:34;;;;;;;8.80;7.30;;;17.80;52.80;;;;;;5022518;28;20491;-59
2021/11/25 10:15:00;;;;;;;11.27;7.80;;;17.90;52.80;;;;;;5004493;28;20694;-54
2021/11/25 10:17:46;;;;;;;8.63;6.97;;;17.80;52.90;;;;;;5008600;28;20029;-56
2021/11/25 10:20:15;;;;;;;9.68;7.75;;;17.80;52.80;;;;;;5020014;28;20026;-54
2021/11/25 10:23:03;;;;;;;8.90;6.88;;;17.80;52.70;;;;;;5010091;28;20080;-59
2021/11/25 10:25:44;;;;;;;9.18;7.18;;;17.80;52.70;;;;;;5007163;28;20034;-59
2021/11/25 10:28:36;;;;;;;8.48;7.10;;;17.80;52.70;;;;;;4981499;28;20715;-53
2021/11/25 10:31:31;;;;;;;12.43;8.18;;;17.80;52.80;;;;;;5003655;28;20046;-53
2021/11/25 10:34:03;;;;;;;8.73;7.20;;;17.80;52.80;;;;;;4980993;28;20429;-56
2021/11/25 10:36:39;;;;;;;9.35;7.50;;;17.80;52.70;;;;;;5020090;28;20033;-59
2021/11/25 10:39:09;;;;;;;10.57;7.53;;;17.80;52.80;;;;;;5006612;28;20139;-54
2021/11/25 10:41:36;;;;;;;8.85;7.22;;;17.80;52.70;;;;;;5020589;28;20034;-51
2021/11/25 10:44:15;;;;;;;8.90;7.25;;;17.80;52.80;;;;;;5007398;28;20033;-55
2021/11/25 10:46:51;;;;;;;8.40;7.22;;;17.80;52.80;;;;;;5021473;28;20087;-52
2021/11/25 10:49:17;;;;;;;9.18;7.25;;;17.80;52.80;;;;;;4990426;28;20021;-57
2021/11/25 10:51:44;;;;;;;9.60;8.02;;;17.80;52.80;;;;;;5021408;28;20041;-55
2021/11/25 10:54:15;;;;;;;9.70;7.05;;;17.70;52.80;;;;;;5007920;28;20025;-59
2021/11/25 10:56:49;;;;;;;8.15;7.05;;;17.70;52.80;;;;;;5021468;28;20438;-58
2021/11/25 10:59:17;;;;;;;9.10;7.32;;;17.80;52.80;;;;;;4991063;28;20030;-54
2021/11/25 11:01:44;;;;;;;10.30;7.00;;;17.80;52.80;;;;;;5003378;28;20057;-56
2021/11/25 11:04:10;;;;;;;7.35;6.55;;;17.70;52.70;;;;;;5017140;23;20512;-60
2021/11/25 11:06:37;;;;;;;7.57;6.45;;;17.70;52.70;;;;;;5003259;28;20029;-61
2021/11/25 11:09:04;;;;;;;8.65;6.20;;;17.70;52.70;;;;;;4999528;28;20493;-60
2021/11/25 11:11:30;;;;;;;9.88;6.38;;;17.70;52.70;;;;;;4998001;28;20046;-57
2021/11/25 11:14:19;;;;;;;7.35;6.50;;;17.70;52.70;;;;;;5003786;28;20037;-61
2021/11/25 11:17:03;;;;;;;8.02;6.38;;;17.70;52.70;;;;;;5011872;28;20088;-60
2021/11/25 11:19:29;;;;;;;7.25;6.22;;;17.70;52.70;;;;;;4997393;28;20453;-61
2021/11/25 11:21:55;;;;;;;6.95;6.25;;;17.70;52.70;;;;;;5014533;28;20035;-62
2021/11/25 11:24:30;;;;;;;7.53;6.65;;;17.70;52.80;;;;;;4999201;28;20022;-61
2021/11/25 11:27:02;;;;;;;7.20;6.47;;;17.70;52.80;;;;;;5014597;28;20476;-61
2021/11/25 11:29:32;;;;;;;8.90;6.70;;;17.70;52.70;;;;;;4999662;28;20324;-60
2021/11/25 11:31:59;;;;;;;7.15;5.93;;;17.70;52.60;;;;;;5001094;28;20034;-60
2021/11/25 11:34:25;;;;;;;6.72;6.00;;;17.70;52.60;;;;;;4999754;28;20080;-58
2021/11/25 11:36:54;;;;;;;8.27;6.07;;;17.70;52.70;;;;;;4999186;28;20029;-56
2021/11/25 11:39:21;;;;;;;8.10;6.43;;;17.70;52.60;;;;;;4999896;28;20022;-59
2021/11/25 11:41:52;;;;;;;7.28;6.45;;;17.70;52.80;;;;;;4999029;28;20048;-56
2021/11/25 11:44:22;;;;;;;7.45;6.35;;;17.70;52.70;;;;;;4998144;28;20614;-59
2021/11/25 11:46:52;;;;;;;9.57;6.68;;;17.70;52.60;;;;;;4999248;28;20084;-60
2021/11/25 11:49:21;;;;;;;6.97;6.28;;;17.70;52.70;;;;;;4997377;28;20446;-60
2021/11/25 11:52:21;;;;;;;6.75;5.75;;;17.70;52.70;;;;;;5015078;28;20041;-57
2021/11/25 11:54:51;;;;;;;6.85;6.15;;;17.70;52.80;;;;;;4994504;28;20037;-61
2021/11/25 11:57:32;;;;;;;7.10;6.07;;;17.60;52.60;;;;;;5003646;28;20061;-60
2021/11/25 12:00:00;;;;;;;7.05;6.25;;;17.60;52.70;;;;;;5002915;28;20080;-61
2021/11/25 12:02:46;;;;;;;6.85;6.05;;;17.60;52.80;;;;;;5003991;28;20091;-59
2021/11/25 12:05:31;;;;;;;7.40;6.50;;;17.50;52.80;;;;;;5002996;28;20538;-58
2021/11/25 12:08:34;;;;;;;6.18;5.50;;;17.50;52.90;;;;;;5003262;28;20499;-61
2021/11/25 12:11:04;;;;;;;6.82;6.13;;;17.50;52.90;;;;;;4985038;28;20104;-58
2021/11/25 12:13:36;;;;;;;6.75;5.68;;;17.50;52.90;;;;;;4998224;28;20080;-61
2021/11/25 12:16:17;;;;;;;6.72;6.13;;;17.50;52.80;;;;;;5002873;28;20057;-60
2021/11/25 12:18:42;;;;;;;7.05;6.35;;;17.50;52.90;;;;;;4991255;28;20609;-64
2021/11/25 12:21:08;;;;;;;6.28;5.68;;;17.50;52.80;;;;;;5002378;28;20061;-60
2021/11/25 12:23:35;;;;;;;6.82;6.13;;;17.50;52.80;;;;;;5003413;28;20033;-61
2021/11/25 12:26:01;;;;;;;6.82;5.97;;;17.50;52.80;;;;;;5002161;28;20030;-59
2021/11/25 12:28:28;;;;;;;6.05;5.45;;;17.50;52.90;;;;;;5000751;28;20041;-57
2021/11/25 12:31:07;;;;;;;6.97;6.28;;;17.60;52.90;;;;;;4984769;28;20060;-61
2021/11/25 12:33:40;;;;;;;5.95;5.38;;;17.60;52.80;;;;;;5003289;28;20045;-61
2021/11/25 12:36:05;;;;;;;6.72;6.03;;;17.60;52.80;;;;;;5000999;28;20037;-57
2021/11/25 12:38:35;;;;;;;6.60;5.53;;;17.60;52.70;;;;;;5001422;28;20029;-60
2021/11/25 12:41:03;;;;;;;5.78;5.13;;;17.70;52.80;;;;;;5001957;28;20045;-60
2021/11/25 12:43:30;;;;;;;5.75;5.20;;;17.70;52.80;;;;;;5000278;28;20045;-57
2021/11/25 12:46:10;;;;;;;5.95;5.35;;;17.70;52.80;;;;;;5002885;28;20088;-60
2021/11/25 12:48:39;;;;;;;6.00;5.40;;;17.70;52.80;;;;;;5001050;28;20037;-60
2021/11/25 12:51:13;;;;;;;6.55;5.93;;;17.70;52.80;;;;;;5002458;28;20045;-61